Time,TemperatureF,DewpointF,PressureIn,WindDirection,WindDirectionDegrees,WindSpeedMPH,WindSpeedGustMPH,Humidity,HourlyPrecipIn,Conditions,Clouds,dailyrainin,SoftwareType,DateUTC
2013-01-22 00:00:00,48.1,43.2,30.21,North,350,0.0,0.0,83,0.00,,CLR,0.00,VWS V14.01,2013-01-22 06:00:00,
2013-01-22 00:05:00,48.1,43.2,30.21,North,350,0.0,0.0,83,0.00,,CLR,0.00,VWS V14.01,2013-01-22 06:05:00,
2013-01-22 00:10:00,48.0,43.4,30.21,North,350,0.0,0.0,84,0.00,,CLR,0.00,VWS V14.01,2013-01-22 06:10:00,
2013-01-22 00:15:00,47.8,43.2,30.21,North,350,0.0,0.0,84,0.00,,CLR,0.00,VWS V14.01,2013-01-22 06:15:00,
2013-01-22 00:20:00,47.5,42.9,30.21,North,350,0.0,0.0,84,0.00,,CLR,0.00,VWS V14.01,2013-01-22 06:20:00,
2013-01-22 00:25:00,47.4,43.1,30.21,North,350,0.0,0.0,85,0.00,,CLR,0.00,VWS V14.01,2013-01-22 06:25:00,
2013-01-22 00:30:00,47.2,42.9,30.21,North,350,0.0,0.0,85,0.00,,CLR,0.00,VWS V14.01,2013-01-22 06:30:00,
2013-01-22 00:35:00,47.1,42.8,30.21,North,350,0.0,0.0,85,0.00,,CLR,0.00,VWS V14.01,2013-01-22 06:35:00,
2013-01-22 00:40:00,46.8,42.8,30.21,North,350,0.0,0.0,86,0.00,,CLR,0.00,VWS V14.01,2013-01-22 06:40:00,
2013-01-22 00:45:00,46.6,42.6,30.21,North,350,0.0,0.0,86,0.00,,CLR,0.00,VWS V14.01,2013-01-22 06:45:00,
2013-01-22 00:50:00,46.5,42.8,30.21,North,350,0.0,0.0,87,0.00,,CLR,0.00,VWS V14.01,2013-01-22 06:50:00,
2013-01-22 00:55:00,46.5,42.8,30.21,North,350,0.0,0.0,87,0.00,,CLR,0.00,VWS V14.01,2013-01-22 06:55:00,
2013-01-22 01:00:00,46.3,42.7,30.21,North,350,0.0,0.0,87,0.00,,CLR,0.00,VWS V14.01,2013-01-22 07:00:00,
2013-01-22 01:05:00,46.2,42.5,30.21,North,350,0.0,0.0,87,0.00,,CLR,0.00,VWS V14.01,2013-01-22 07:05:00,
2013-01-22 01:10:00,46.2,42.5,30.21,North,350,0.0,0.0,87,0.00,,CLR,0.00,VWS V14.01,2013-01-22 07:10:00,
2013-01-22 01:15:00,46.0,42.3,30.21,North,350,0.0,0.0,87,0.00,,CLR,0.00,VWS V14.01,2013-01-22 07:15:00,
2013-01-22 01:20:00,45.9,42.3,30.21,North,350,0.0,0.0,87,0.00,,CLR,0.00,VWS V14.01,2013-01-22 07:20:00,
2013-01-22 01:25:00,45.7,42.1,30.21,North,350,0.0,0.0,87,0.00,,CLR,0.00,VWS V14.01,2013-01-22 07:25:00,
2013-01-22 01:30:00,45.6,42.3,30.21,North,350,0.0,0.0,88,0.00,,CLR,0.00,VWS V14.01,2013-01-22 07:30:00,
2013-01-22 01:35:00,45.5,42.2,30.21,North,350,0.0,0.0,88,0.00,,CLR,0.00,VWS V14.01,2013-01-22 07:35:00,
2013-01-22 01:40:00,45.3,42.0,30.21,North,350,0.0,0.0,88,0.00,,CLR,0.00,VWS V14.01,2013-01-22 07:40:00,
2013-01-22 01:45:00,45.2,41.9,30.21,North,350,0.0,0.0,88,0.00,,CLR,0.00,VWS V14.01,2013-01-22 07:45:00,
2013-01-22 01:50:00,45.2,41.9,30.21,North,350,0.0,0.0,88,0.00,,CLR,0.00,VWS V14.01,2013-01-22 07:50:00,
2013-01-22 01:55:00,45.2,41.9,30.21,North,350,0.0,0.0,88,0.00,,CLR,0.00,VWS V14.01,2013-01-22 07:55:00,
2013-01-22 02:00:00,45.0,41.7,30.21,North,350,0.0,0.0,88,0.00,,CLR,0.00,VWS V14.01,2013-01-22 08:00:00,
2013-01-22 02:05:00,44.9,41.6,30.21,North,350,0.0,0.0,88,0.00,,CLR,0.00,VWS V14.01,2013-01-22 08:05:00,
2013-01-22 02:10:00,44.9,41.6,30.21,North,350,0.0,0.0,88,0.00,,CLR,0.00,VWS V14.01,2013-01-22 08:10:00,
2013-01-22 02:15:00,44.7,41.4,30.21,North,350,0.0,0.0,88,0.00,,CLR,0.00,VWS V14.01,2013-01-22 08:15:00,
2013-01-22 02:20:00,44.7,41.4,30.21,North,350,0.0,0.0,88,0.00,,CLR,0.00,VWS V14.01,2013-01-22 08:20:00,
2013-01-22 02:25:00,44.7,41.4,30.21,North,350,0.0,0.0,88,0.00,,CLR,0.00,VWS V14.01,2013-01-22 08:25:00,
2013-01-22 02:30:00,44.6,41.3,30.21,North,350,0.0,0.0,88,0.00,,CLR,0.00,VWS V14.01,2013-01-22 08:30:00,
2013-01-22 02:35:00,44.4,41.1,30.21,North,350,0.0,0.0,88,0.00,,CLR,0.00,VWS V14.01,2013-01-22 08:35:00,
2013-01-22 02:40:00,44.3,41.0,30.21,North,350,0.0,0.0,88,0.00,,CLR,0.00,VWS V14.01,2013-01-22 08:40:00,
2013-01-22 02:45:00,44.3,41.0,30.21,North,350,0.0,0.0,88,0.00,,CLR,0.00,VWS V14.01,2013-01-22 08:45:00,
2013-01-22 02:50:00,44.4,41.1,30.21,North,350,0.0,0.0,88,0.00,,CLR,0.00,VWS V14.01,2013-01-22 08:50:00,
2013-01-22 02:55:00,44.4,41.1,30.21,North,350,0.0,0.0,88,0.00,,CLR,0.00,VWS V14.01,2013-01-22 08:55:00,
2013-01-22 03:00:00,44.4,41.1,30.21,North,350,0.0,0.0,88,0.00,,CLR,0.00,VWS V14.01,2013-01-22 09:00:00,
2013-01-22 03:05:00,44.4,41.1,30.21,North,350,0.0,0.0,88,0.00,,CLR,0.00,VWS V14.01,2013-01-22 09:05:00,
2013-01-22 03:10:00,44.4,41.1,30.21,North,350,0.0,0.0,88,0.00,,CLR,0.00,VWS V14.01,2013-01-22 09:10:00,
2013-01-22 03:15:00,44.4,41.1,30.21,North,350,0.0,0.0,88,0.00,,CLR,0.00,VWS V14.01,2013-01-22 09:15:00,
2013-01-22 03:20:00,44.4,40.8,30.22,North,350,0.0,0.0,87,0.00,,CLR,0.00,VWS V14.01,2013-01-22 09:20:00,
2013-01-22 03:25:00,44.4,40.8,30.22,North,350,0.0,0.0,87,0.00,,CLR,0.00,VWS V14.01,2013-01-22 09:25:00,
2013-01-22 03:30:00,44.4,40.8,30.22,North,350,0.0,0.0,87,0.00,,CLR,0.00,VWS V14.01,2013-01-22 09:30:00,
2013-01-22 03:35:00,44.4,40.8,30.22,North,350,0.0,0.0,87,0.00,,CLR,0.00,VWS V14.01,2013-01-22 09:35:00,
2013-01-22 03:40:00,44.4,40.8,30.22,North,350,0.0,0.0,87,0.00,,CLR,0.00,VWS V14.01,2013-01-22 09:40:00,
2013-01-22 03:45:00,44.3,40.7,30.22,North,350,0.0,0.0,87,0.00,,CLR,0.00,VWS V14.01,2013-01-22 09:45:00,
2013-01-22 03:50:00,44.1,40.5,30.22,North,350,0.0,0.0,87,0.00,,CLR,0.00,VWS V14.01,2013-01-22 09:50:00,
2013-01-22 03:55:00,44.0,40.4,30.22,North,350,0.0,0.0,87,0.00,,CLR,0.00,VWS V14.01,2013-01-22 09:55:00,
2013-01-22 04:00:00,44.3,40.7,30.22,North,350,0.0,0.0,87,0.00,,CLR,0.00,VWS V14.01,2013-01-22 10:00:00,
2013-01-22 04:01:00,43.8,40.2,30.22,North,350,0.0,0.0,87,0.00,,CLR,0.00,VWS V14.01,2013-01-22 10:01:00,
2013-01-22 04:06:00,43.8,40.2,30.23,North,350,0.0,0.0,87,0.00,,CLR,0.00,VWS V14.01,2013-01-22 10:06:00,
2013-01-22 04:10:00,44.0,40.4,30.22,North,350,0.0,0.0,87,0.00,,CLR,0.00,VWS V14.01,2013-01-22 10:10:00,
2013-01-22 04:11:00,43.7,40.1,30.23,North,350,0.0,0.0,87,0.00,,CLR,0.00,VWS V14.01,2013-01-22 10:11:00,
2013-01-22 04:16:00,43.7,40.1,30.23,North,350,0.0,0.0,87,0.00,,CLR,0.00,VWS V14.01,2013-01-22 10:16:00,
2013-01-22 04:20:00,43.7,40.1,30.23,North,350,0.0,0.0,87,0.00,,CLR,0.00,VWS V14.01,2013-01-22 10:20:00,
2013-01-22 04:21:00,43.7,40.1,30.23,North,350,0.0,0.0,87,0.00,,CLR,0.00,VWS V14.01,2013-01-22 10:21:00,
2013-01-22 04:26:00,43.7,40.1,30.23,North,350,0.0,0.0,87,0.00,,CLR,0.00,VWS V14.01,2013-01-22 10:26:00,
2013-01-22 04:30:00,43.7,40.1,30.23,North,350,0.0,0.0,87,0.00,,CLR,0.00,VWS V14.01,2013-01-22 10:30:00,
2013-01-22 04:31:00,43.6,40.0,30.23,North,350,0.0,0.0,87,0.00,,CLR,0.00,VWS V14.01,2013-01-22 10:31:00,
2013-01-22 04:36:00,43.7,40.1,30.23,North,350,0.0,0.0,87,0.00,,CLR,0.00,VWS V14.01,2013-01-22 10:36:00,
2013-01-22 04:40:00,43.6,40.0,30.23,North,350,0.0,0.0,87,0.00,,CLR,0.00,VWS V14.01,2013-01-22 10:40:00,
2013-01-22 04:41:00,43.7,40.1,30.23,North,350,0.0,0.0,87,0.00,,CLR,0.00,VWS V14.01,2013-01-22 10:41:00,
2013-01-22 04:46:00,43.7,40.1,30.23,North,350,0.0,0.0,87,0.00,,CLR,0.00,VWS V14.01,2013-01-22 10:46:00,
2013-01-22 04:50:00,43.7,40.1,30.23,North,350,0.0,0.0,87,0.00,,CLR,0.00,VWS V14.01,2013-01-22 10:50:00,
2013-01-22 04:51:00,43.7,40.1,30.23,North,350,0.0,0.0,87,0.00,,CLR,0.00,VWS V14.01,2013-01-22 10:51:00,
2013-01-22 04:56:00,43.7,40.1,30.23,North,350,0.0,0.0,87,0.00,,CLR,0.00,VWS V14.01,2013-01-22 10:56:00,
2013-01-22 05:00:00,43.7,40.1,30.23,North,350,0.0,0.0,87,0.00,,CLR,0.00,VWS V14.01,2013-01-22 11:00:00,
2013-01-22 05:01:00,43.6,40.0,30.23,North,350,0.0,0.0,87,0.00,,CLR,0.00,VWS V14.01,2013-01-22 11:01:00,
2013-01-22 05:06:00,43.6,40.0,30.23,North,350,0.0,0.0,87,0.00,,CLR,0.00,VWS V14.01,2013-01-22 11:06:00,
2013-01-22 05:10:00,43.6,40.0,30.23,North,350,0.0,0.0,87,0.00,,CLR,0.00,VWS V14.01,2013-01-22 11:10:00,
2013-01-22 05:11:00,43.6,40.0,30.23,North,350,0.0,0.0,87,0.00,,CLR,0.00,VWS V14.01,2013-01-22 11:11:00,
2013-01-22 05:16:00,43.6,40.0,30.23,North,350,0.0,0.0,87,0.00,,CLR,0.00,VWS V14.01,2013-01-22 11:16:00,
2013-01-22 05:20:00,43.6,40.0,30.23,North,350,0.0,0.0,87,0.00,,CLR,0.00,VWS V14.01,2013-01-22 11:20:00,
2013-01-22 05:21:00,43.6,40.0,30.24,North,350,0.0,0.0,87,0.00,,CLR,0.00,VWS V14.01,2013-01-22 11:21:00,
2013-01-22 05:26:00,43.6,40.0,30.24,North,350,0.0,0.0,87,0.00,,CLR,0.00,VWS V14.01,2013-01-22 11:26:00,
2013-01-22 05:30:00,43.6,40.0,30.24,North,350,0.0,0.0,87,0.00,,CLR,0.00,VWS V14.01,2013-01-22 11:30:00,
2013-01-22 05:31:00,43.6,40.0,30.24,North,350,0.0,0.0,87,0.00,,CLR,0.00,VWS V14.01,2013-01-22 11:31:00,
2013-01-22 05:36:00,43.6,40.0,30.24,North,350,0.0,0.0,87,0.00,,CLR,0.00,VWS V14.01,2013-01-22 11:36:00,
2013-01-22 05:40:00,43.6,40.0,30.24,North,350,0.0,0.0,87,0.00,,CLR,0.00,VWS V14.01,2013-01-22 11:40:00,
2013-01-22 05:41:00,43.8,40.5,30.24,North,350,0.0,0.0,88,0.00,,CLR,0.00,VWS V14.01,2013-01-22 11:41:00,
2013-01-22 05:46:00,44.1,40.8,30.24,North,350,0.0,0.0,88,0.00,,CLR,0.00,VWS V14.01,2013-01-22 11:46:00,
2013-01-22 05:50:00,43.7,40.4,30.24,North,350,0.0,0.0,88,0.00,,CLR,0.00,VWS V14.01,2013-01-22 11:50:00,
2013-01-22 05:51:00,44.4,41.1,30.24,North,350,0.0,0.0,88,0.00,,CLR,0.00,VWS V14.01,2013-01-22 11:51:00,
2013-01-22 05:56:00,44.9,41.3,30.24,North,350,0.0,2.0,87,0.00,,CLR,0.00,VWS V14.01,2013-01-22 11:56:00,
2013-01-22 06:00:00,44.3,41.0,30.24,North,350,0.0,0.0,88,0.00,,CLR,0.00,VWS V14.01,2013-01-22 12:00:00,
2013-01-22 06:01:00,45.3,41.4,30.24,North,350,1.0,1.0,86,0.00,,OVC060,0.00,VWS V14.01,2013-01-22 12:01:00,
2013-01-22 06:06:00,45.6,41.4,30.25,North,350,0.0,1.0,85,0.00,,OVC060,0.00,VWS V14.01,2013-01-22 12:06:00,
2013-01-22 06:10:00,45.2,41.3,30.24,North,350,0.0,2.0,86,0.00,,CLR,0.00,VWS V14.01,2013-01-22 12:10:00,
2013-01-22 06:11:00,45.9,41.3,30.25,North,350,0.0,1.0,84,0.00,,OVC060,0.00,VWS V14.01,2013-01-22 12:11:00,
2013-01-22 06:16:00,46.2,41.6,30.25,North,350,0.0,2.0,84,0.00,,OVC060,0.00,VWS V14.01,2013-01-22 12:16:00,
2013-01-22 06:20:00,45.7,41.2,30.25,North,350,0.0,2.0,84,0.00,,CLR,0.00,VWS V14.01,2013-01-22 12:20:00,
2013-01-22 06:21:00,46.5,41.6,30.26,North,350,0.0,2.0,83,0.00,,OVC060,0.00,VWS V14.01,2013-01-22 12:21:00,
2013-01-22 06:26:00,46.6,41.4,30.26,North,350,0.0,2.0,82,0.00,,OVC060,0.00,VWS V14.01,2013-01-22 12:26:00,
2013-01-22 06:30:00,46.3,41.4,30.26,North,350,0.0,2.0,83,0.00,,CLR,0.00,VWS V14.01,2013-01-22 12:30:00,
2013-01-22 06:31:00,46.8,41.6,30.26,North,350,0.0,0.0,82,0.00,,OVC060,0.00,VWS V14.01,2013-01-22 12:31:00,
2013-01-22 06:36:00,46.9,41.7,30.26,North,350,0.0,0.0,82,0.00,,OVC060,0.00,VWS V14.01,2013-01-22 12:36:00,
2013-01-22 06:40:00,46.8,41.6,30.26,North,350,0.0,2.0,82,0.00,,CLR,0.00,VWS V14.01,2013-01-22 12:40:00,
2013-01-22 06:41:00,46.9,41.4,30.26,North,350,0.0,0.0,81,0.00,,OVC060,0.00,VWS V14.01,2013-01-22 12:41:00,
2013-01-22 06:46:00,46.9,41.4,30.26,North,350,0.0,0.0,81,0.00,,OVC060,0.00,VWS V14.01,2013-01-22 12:46:00,
2013-01-22 06:50:00,46.9,41.7,30.26,North,350,0.0,0.0,82,0.00,,CLR,0.00,VWS V14.01,2013-01-22 12:50:00,
2013-01-22 06:52:00,46.9,41.1,30.26,North,350,0.0,0.0,80,0.00,,OVC060,0.00,VWS V14.01,2013-01-22 12:52:00,
2013-01-22 06:57:00,46.9,40.7,30.26,North,350,0.0,0.0,79,0.00,,OVC060,0.00,VWS V14.01,2013-01-22 12:57:00,
2013-01-22 07:00:00,46.9,41.1,30.26,North,350,0.0,0.0,80,0.00,,CLR,0.00,VWS V14.01,2013-01-22 13:00:00,
2013-01-22 07:02:00,46.9,40.7,30.26,North,350,0.0,0.0,79,0.00,,OVC065,0.00,VWS V14.01,2013-01-22 13:02:00,
2013-01-22 07:07:00,46.9,40.4,30.27,North,350,0.0,0.0,78,0.00,,OVC065,0.00,VWS V14.01,2013-01-22 13:07:00,
2013-01-22 07:10:00,46.9,40.7,30.26,North,350,0.0,0.0,79,0.00,,CLR,0.00,VWS V14.01,2013-01-22 13:10:00,
2013-01-22 07:12:00,47.1,40.9,30.27,North,350,0.0,0.0,79,0.00,,OVC065,0.00,VWS V14.01,2013-01-22 13:12:00,
2013-01-22 07:17:00,46.9,40.7,30.27,North,350,0.0,0.0,79,0.00,,OVC065,0.00,VWS V14.01,2013-01-22 13:17:00,
2013-01-22 07:20:00,46.9,40.7,30.27,North,350,0.0,0.0,79,0.00,,CLR,0.00,VWS V14.01,2013-01-22 13:20:00,
2013-01-22 07:22:00,46.9,40.7,30.27,North,350,0.0,0.0,79,0.00,,OVC065,0.00,VWS V14.01,2013-01-22 13:22:00,
2013-01-22 07:27:00,46.8,40.6,30.27,North,350,0.0,0.0,79,0.00,,OVC065,0.00,VWS V14.01,2013-01-22 13:27:00,
2013-01-22 07:30:00,46.9,40.7,30.27,North,350,0.0,0.0,79,0.00,,CLR,0.00,VWS V14.01,2013-01-22 13:30:00,
2013-01-22 07:32:00,46.8,40.6,30.27,North,350,0.0,0.0,79,0.00,,OVC065,0.00,VWS V14.01,2013-01-22 13:32:00,
2013-01-22 07:37:00,46.6,40.5,30.28,North,350,0.0,0.0,79,0.00,,OVC065,0.00,VWS V14.01,2013-01-22 13:37:00,
2013-01-22 07:40:00,46.8,40.6,30.27,North,350,0.0,0.0,79,0.00,,CLR,0.00,VWS V14.01,2013-01-22 13:40:00,
2013-01-22 07:42:00,46.6,40.5,30.28,North,350,0.0,0.0,79,0.00,,OVC065,0.00,VWS V14.01,2013-01-22 13:42:00,
2013-01-22 07:47:00,46.6,40.1,30.28,North,350,0.0,0.0,78,0.00,,OVC065,0.00,VWS V14.01,2013-01-22 13:47:00,
2013-01-22 07:50:00,46.6,40.5,30.28,North,350,0.0,0.0,79,0.00,,CLR,0.00,VWS V14.01,2013-01-22 13:50:00,
2013-01-22 07:52:00,46.5,39.7,30.27,North,350,0.0,0.0,77,0.00,,OVC065,0.00,VWS V14.01,2013-01-22 13:52:00,
2013-01-22 07:57:00,46.5,39.7,30.27,North,350,0.0,0.0,77,0.00,,OVC065,0.00,VWS V14.01,2013-01-22 13:57:00,
2013-01-22 08:00:00,46.6,40.1,30.27,North,350,0.0,0.0,78,0.00,,CLR,0.00,VWS V14.01,2013-01-22 14:00:00,
2013-01-22 08:02:00,46.5,39.7,30.27,North,350,0.0,0.0,77,0.00,,OVC065,0.00,VWS V14.01,2013-01-22 14:02:00,
2013-01-22 08:07:00,46.6,39.8,30.27,North,350,0.0,0.0,77,0.00,,OVC065,0.00,VWS V14.01,2013-01-22 14:07:00,
2013-01-22 08:10:00,46.5,39.7,30.27,North,350,0.0,0.0,77,0.00,,CLR,0.00,VWS V14.01,2013-01-22 14:10:00,
2013-01-22 08:12:00,46.6,39.8,30.27,North,350,0.0,0.0,77,0.00,,OVC065,0.00,VWS V14.01,2013-01-22 14:12:00,
2013-01-22 08:17:00,46.8,40.0,30.27,North,350,0.0,0.0,77,0.00,,OVC065,0.00,VWS V14.01,2013-01-22 14:17:00,
2013-01-22 08:20:00,46.6,39.8,30.27,North,350,0.0,0.0,77,0.00,,CLR,0.00,VWS V14.01,2013-01-22 14:20:00,
2013-01-22 08:23:00,47.2,40.0,30.27,North,350,0.0,0.0,76,0.00,,OVC065,0.00,VWS V14.01,2013-01-22 14:23:00,
2013-01-22 08:28:00,48.0,40.5,30.27,North,350,0.0,0.0,75,0.00,,OVC065,0.00,VWS V14.01,2013-01-22 14:28:00,
2013-01-22 08:30:00,46.9,40.1,30.27,North,350,0.0,0.0,77,0.00,,CLR,0.00,VWS V14.01,2013-01-22 14:30:00,
2013-01-22 08:33:00,48.9,40.3,30.27,North,350,0.0,0.0,72,0.00,,OVC065,0.00,VWS V14.01,2013-01-22 14:33:00,
2013-01-22 08:38:00,49.4,40.4,30.27,North,350,0.0,0.0,71,0.00,,OVC065,0.00,VWS V14.01,2013-01-22 14:38:00,
2013-01-22 08:40:00,48.1,40.2,30.27,North,350,0.0,0.0,74,0.00,,CLR,0.00,VWS V14.01,2013-01-22 14:40:00,
2013-01-22 08:43:00,50.0,40.6,30.27,North,350,0.0,0.0,70,0.00,,OVC065,0.00,VWS V14.01,2013-01-22 14:43:00,
2013-01-22 08:48:00,50.5,41.1,30.27,North,350,0.0,0.0,70,0.00,,OVC065,0.00,VWS V14.01,2013-01-22 14:48:00,
2013-01-22 08:50:00,49.6,40.6,30.27,North,350,0.0,0.0,71,0.00,,CLR,0.00,VWS V14.01,2013-01-22 14:50:00,
2013-01-22 08:53:00,50.9,40.7,30.27,North,350,0.0,0.0,68,0.00,,OVC065,0.00,VWS V14.01,2013-01-22 14:53:00,
2013-01-22 08:58:00,51.1,40.5,30.27,North,350,0.0,1.0,67,0.00,,OVC065,0.00,VWS V14.01,2013-01-22 14:58:00,
2013-01-22 09:00:00,50.5,41.1,30.27,North,350,0.0,0.0,70,0.00,,CLR,0.00,VWS V14.01,2013-01-22 15:00:00,
2013-01-22 09:03:00,51.4,40.4,30.28,North,350,0.0,2.0,66,0.01,,CLR,0.01,VWS V14.01,2013-01-22 15:03:00,
2013-01-22 09:08:00,51.8,40.8,30.28,North,350,0.0,2.0,66,0.01,,CLR,0.01,VWS V14.01,2013-01-22 15:08:00,
2013-01-22 09:10:00,51.1,40.5,30.27,North,350,1.0,1.0,67,0.00,,CLR,0.00,VWS V14.01,2013-01-22 15:10:00,
2013-01-22 09:13:00,52.3,41.3,30.28,North,350,1.0,1.0,66,0.01,,CLR,0.01,VWS V14.01,2013-01-22 15:13:00,
2013-01-22 09:18:00,52.4,41.0,30.29,North,350,0.0,3.0,65,0.01,,CLR,0.01,VWS V14.01,2013-01-22 15:18:00,
2013-01-22 09:20:00,52.0,41.0,30.28,North,350,0.0,2.0,66,0.01,,CLR,0.01,VWS V14.01,2013-01-22 15:20:00,
2013-01-22 09:23:00,52.8,41.4,30.29,North,350,0.0,1.0,65,0.01,,CLR,0.01,VWS V14.01,2013-01-22 15:23:00,
2013-01-22 09:28:00,53.0,41.2,30.29,North,350,0.0,2.0,64,0.01,,CLR,0.01,VWS V14.01,2013-01-22 15:28:00,
2013-01-22 09:30:00,52.4,41.0,30.29,North,350,0.0,3.0,65,0.01,,CLR,0.01,VWS V14.01,2013-01-22 15:30:00,
2013-01-22 09:33:00,53.3,41.8,30.29,North,350,0.0,3.0,65,0.01,,CLR,0.01,VWS V14.01,2013-01-22 15:33:00,
2013-01-22 09:38:00,53.6,42.1,30.29,North,350,0.0,3.0,65,0.01,,CLR,0.01,VWS V14.01,2013-01-22 15:38:00,
2013-01-22 09:40:00,53.0,41.2,30.29,North,350,0.0,2.0,64,0.01,,CLR,0.01,VWS V14.01,2013-01-22 15:40:00,
2013-01-22 09:43:00,53.9,42.0,30.29,North,350,0.0,2.0,64,0.01,,CLR,0.01,VWS V14.01,2013-01-22 15:43:00,
2013-01-22 09:48:00,54.5,42.6,30.29,SE,128,0.0,4.0,64,0.01,,CLR,0.01,VWS V14.01,2013-01-22 15:48:00,
2013-01-22 09:50:00,53.6,42.1,30.29,North,350,1.0,3.0,65,0.01,,CLR,0.01,VWS V14.01,2013-01-22 15:50:00,
2013-01-22 09:53:00,54.9,42.6,30.29,SE,128,0.0,1.0,63,0.01,,CLR,0.01,VWS V14.01,2013-01-22 15:53:00,
2013-01-22 09:58:00,55.7,43.7,30.29,SE,128,0.0,2.0,64,0.01,,CLR,0.01,VWS V14.01,2013-01-22 15:58:00,
2013-01-22 10:00:00,54.5,42.2,30.29,SE,128,0.0,4.0,63,0.01,,CLR,0.01,VWS V14.01,2013-01-22 16:00:00,
2013-01-22 10:03:00,56.2,43.8,30.30,SE,128,0.0,1.0,63,0.01,,CLR,0.01,VWS V14.01,2013-01-22 16:03:00,
2013-01-22 10:08:00,57.3,44.0,30.30,SE,128,0.0,1.0,61,0.01,,CLR,0.01,VWS V14.01,2013-01-22 16:08:00,
2013-01-22 10:10:00,55.7,43.7,30.29,SE,128,0.0,2.0,64,0.01,,CLR,0.01,VWS V14.01,2013-01-22 16:10:00,
2013-01-22 10:13:00,57.9,44.1,30.30,SE,128,0.0,0.0,60,0.00,,CLR,0.01,VWS V14.01,2013-01-22 16:13:00,
2013-01-22 10:18:00,58.2,44.8,30.30,SE,127,2.0,2.0,61,0.00,,CLR,0.01,VWS V14.01,2013-01-22 16:18:00,
2013-01-22 10:20:00,57.3,44.0,30.30,SE,128,0.0,1.0,61,0.01,,CLR,0.01,VWS V14.01,2013-01-22 16:20:00,
2013-01-22 10:23:00,58.4,44.6,30.30,SE,127,0.0,1.0,60,0.00,,CLR,0.01,VWS V14.01,2013-01-22 16:23:00,
2013-01-22 10:28:00,59.1,45.7,30.30,SE,127,0.0,1.0,61,0.00,,CLR,0.01,VWS V14.01,2013-01-22 16:28:00,
2013-01-22 10:30:00,58.2,44.4,30.30,SE,127,0.0,2.0,60,0.00,,CLR,0.01,VWS V14.01,2013-01-22 16:30:00,
2013-01-22 10:33:00,59.7,45.8,30.31,SE,127,0.0,1.0,60,0.00,,CLR,0.01,VWS V14.01,2013-01-22 16:33:00,
2013-01-22 10:38:00,60.5,46.6,30.31,SE,127,0.0,4.0,60,0.00,,CLR,0.01,VWS V14.01,2013-01-22 16:38:00,
2013-01-22 10:40:00,59.1,45.2,30.30,SE,127,0.0,1.0,60,0.00,,CLR,0.01,VWS V14.01,2013-01-22 16:40:00,
2013-01-22 10:43:00,61.3,45.5,30.31,SE,127,0.0,0.0,56,0.00,,CLR,0.01,VWS V14.01,2013-01-22 16:43:00,
2013-01-22 10:48:00,61.6,46.2,30.31,SE,127,0.0,1.0,57,0.00,,CLR,0.01,VWS V14.01,2013-01-22 16:48:00,
2013-01-22 10:50:00,60.5,46.6,30.31,SE,127,0.0,4.0,60,0.00,,CLR,0.01,VWS V14.01,2013-01-22 16:50:00,
2013-01-22 10:53:00,61.8,47.8,30.31,SE,127,0.0,2.0,60,0.00,,CLR,0.01,VWS V14.01,2013-01-22 16:53:00,
2013-01-22 10:58:00,62.4,48.3,30.31,SE,127,0.0,2.0,60,0.00,,CLR,0.01,VWS V14.01,2013-01-22 16:58:00,
2013-01-22 11:00:00,61.6,46.2,30.31,SE,127,1.0,1.0,57,0.00,,CLR,0.01,VWS V14.01,2013-01-22 17:00:00,
2013-01-22 11:03:00,63.0,48.9,30.30,South,169,0.0,4.0,60,0.00,,FEW065,0.01,VWS V14.01,2013-01-22 17:03:00,
2013-01-22 11:08:00,63.2,48.7,30.30,SSW,197,1.0,4.0,59,0.00,,FEW065,0.01,VWS V14.01,2013-01-22 17:08:00,
2013-01-22 11:10:00,62.6,49.0,30.31,SE,127,0.0,2.0,61,0.00,,CLR,0.01,VWS V14.01,2013-01-22 17:10:00,
2013-01-22 11:13:00,63.5,48.9,30.30,SSE,160,5.0,6.0,59,0.00,,FEW065,0.01,VWS V14.01,2013-01-22 17:13:00,
2013-01-22 11:18:00,64.0,48.9,30.30,SE,135,0.0,6.0,58,0.00,,FEW065,0.01,VWS V14.01,2013-01-22 17:18:00,
2013-01-22 11:20:00,63.2,48.7,30.30,SSW,197,1.0,4.0,59,0.00,,CLR,0.01,VWS V14.01,2013-01-22 17:20:00,
2013-01-22 11:23:00,64.5,49.0,30.30,SE,134,1.0,4.0,57,0.00,,FEW065,0.01,VWS V14.01,2013-01-22 17:23:00,
2013-01-22 11:28:00,65.0,49.4,30.30,SSE,163,0.0,4.0,57,0.00,,FEW065,0.01,VWS V14.01,2013-01-22 17:28:00,
2013-01-22 11:30:00,64.0,48.9,30.30,SE,136,1.0,6.0,58,0.00,,CLR,0.01,VWS V14.01,2013-01-22 17:30:00,
2013-01-22 11:33:00,65.3,49.2,30.29,SSE,161,2.0,4.0,56,0.00,,FEW065,0.01,VWS V14.01,2013-01-22 17:33:00,
2013-01-22 11:38:00,65.6,50.0,30.29,SE,144,0.0,4.0,57,0.00,,FEW065,0.01,VWS V14.01,2013-01-22 17:38:00,
2013-01-22 11:40:00,65.1,49.5,30.30,SSE,163,0.0,4.0,57,0.00,,CLR,0.01,VWS V14.01,2013-01-22 17:40:00,
2013-01-22 11:43:00,65.6,49.5,30.29,SE,140,0.0,7.0,56,0.00,,FEW065,0.01,VWS V14.01,2013-01-22 17:43:00,
2013-01-22 11:48:00,65.6,49.5,30.29,SSW,200,0.0,7.0,56,0.00,,FEW065,0.01,VWS V14.01,2013-01-22 17:48:00,
2013-01-22 11:50:00,65.6,49.5,30.29,SSE,156,4.0,5.0,56,0.00,,CLR,0.01,VWS V14.01,2013-01-22 17:50:00,
2013-01-22 11:53:00,66.1,50.0,30.29,South,183,2.0,4.0,56,0.00,,FEW065,0.01,VWS V14.01,2013-01-22 17:53:00,
2013-01-22 11:58:00,66.4,49.8,30.29,SSW,207,2.0,5.0,55,0.00,,FEW065,0.01,VWS V14.01,2013-01-22 17:58:00,
2013-01-22 12:00:00,65.6,49.5,30.29,SSW,198,2.0,7.0,56,0.00,,CLR,0.01,VWS V14.01,2013-01-22 18:00:00,
2013-01-22 12:03:00,66.6,50.9,30.27,SSW,206,2.0,5.0,57,0.00,,CLR,0.01,VWS V14.01,2013-01-22 18:03:00,
2013-01-22 12:08:00,67.4,49.7,30.27,South,184,1.0,6.0,53,0.00,,CLR,0.01,VWS V14.01,2013-01-22 18:08:00,
2013-01-22 12:10:00,66.4,49.8,30.29,SSW,207,1.0,5.0,55,0.00,,CLR,0.01,VWS V14.01,2013-01-22 18:10:00,
2013-01-22 12:13:00,67.6,49.4,30.27,South,170,0.0,7.0,52,0.00,,CLR,0.01,VWS V14.01,2013-01-22 18:13:00,
2013-01-22 12:18:00,67.9,49.1,30.26,SSW,201,3.0,7.0,51,0.00,,CLR,0.01,VWS V14.01,2013-01-22 18:18:00,
2013-01-22 12:20:00,67.4,49.7,30.27,South,184,1.0,6.0,53,0.00,,CLR,0.01,VWS V14.01,2013-01-22 18:20:00,
2013-01-22 12:23:00,67.9,49.7,30.26,SSW,202,1.0,5.0,52,0.00,,CLR,0.01,VWS V14.01,2013-01-22 18:23:00,
2013-01-22 12:28:00,68.1,50.8,30.26,South,182,1.0,5.0,54,0.00,,CLR,0.01,VWS V14.01,2013-01-22 18:28:00,
2013-01-22 12:30:00,67.9,49.1,30.26,SSW,201,0.0,7.0,51,0.00,,CLR,0.01,VWS V14.01,2013-01-22 18:30:00,
2013-01-22 12:33:00,68.8,49.4,30.25,South,174,1.0,6.0,50,0.00,,CLR,0.01,VWS V14.01,2013-01-22 18:33:00,
2013-01-22 12:38:00,69.3,49.3,30.25,SSW,213,3.0,6.0,49,0.00,,CLR,0.01,VWS V14.01,2013-01-22 18:38:00,
2013-01-22 12:40:00,68.1,50.8,30.26,South,182,0.0,5.0,54,0.00,,CLR,0.01,VWS V14.01,2013-01-22 18:40:00,
2013-01-22 12:43:00,69.8,49.8,30.25,South,188,0.0,4.0,49,0.00,,CLR,0.01,VWS V14.01,2013-01-22 18:43:00,
2013-01-22 12:48:00,70.1,49.0,30.24,SSW,205,0.0,5.0,47,0.00,,CLR,0.01,VWS V14.01,2013-01-22 18:48:00,
2013-01-22 12:50:00,69.3,49.3,30.25,SSW,213,3.0,6.0,49,0.00,,CLR,0.01,VWS V14.01,2013-01-22 18:50:00,
2013-01-22 12:53:00,70.4,49.2,30.24,South,191,2.0,6.0,47,0.00,,CLR,0.01,VWS V14.01,2013-01-22 18:53:00,
2013-01-22 12:58:00,70.4,49.8,30.24,South,184,1.0,6.0,48,0.00,,CLR,0.01,VWS V14.01,2013-01-22 18:58:00,
2013-01-22 13:00:00,70.1,49.0,30.24,SSW,205,0.0,5.0,47,0.00,,CLR,0.01,VWS V14.01,2013-01-22 19:00:00,
2013-01-22 13:03:00,70.8,49.6,30.23,South,184,2.0,5.0,47,0.00,,OVC065,0.01,VWS V14.01,2013-01-22 19:03:00,
2013-01-22 13:08:00,71.1,48.7,30.23,South,191,0.0,5.0,45,0.00,,OVC065,0.01,VWS V14.01,2013-01-22 19:08:00,
2013-01-22 13:10:00,70.4,49.8,30.24,South,184,1.0,6.0,48,0.00,,CLR,0.01,VWS V14.01,2013-01-22 19:10:00,
2013-01-22 13:13:00,71.3,48.9,30.23,SSE,165,2.0,6.0,45,0.00,,OVC065,0.01,VWS V14.01,2013-01-22 19:13:00,
2013-01-22 13:18:00,71.1,49.9,30.23,SE,146,2.0,6.0,47,0.00,,OVC065,0.01,VWS V14.01,2013-01-22 19:18:00,
2013-01-22 13:20:00,71.1,48.7,30.23,South,191,0.0,5.0,45,0.00,,CLR,0.01,VWS V14.01,2013-01-22 19:20:00,
2013-01-22 13:23:00,71.3,48.3,30.23,SSE,163,1.0,4.0,44,0.00,,OVC065,0.01,VWS V14.01,2013-01-22 19:23:00,
2013-01-22 13:28:00,71.8,48.7,30.23,South,178,0.0,0.0,44,0.00,,OVC065,0.01,VWS V14.01,2013-01-22 19:28:00,
2013-01-22 13:30:00,71.1,49.9,30.23,SE,146,2.0,6.0,47,0.00,,CLR,0.01,VWS V14.01,2013-01-22 19:30:00,
2013-01-22 13:33:00,72.2,49.1,30.21,SSW,199,1.0,6.0,44,0.00,,OVC065,0.01,VWS V14.01,2013-01-22 19:33:00,
2013-01-22 13:38:00,72.5,50.0,30.21,SSW,194,2.0,2.0,45,0.00,,OVC065,0.01,VWS V14.01,2013-01-22 19:38:00,
2013-01-22 13:40:00,71.8,48.7,30.23,South,178,0.0,4.0,44,0.00,,CLR,0.01,VWS V14.01,2013-01-22 19:40:00,
2013-01-22 13:43:00,72.8,49.6,30.21,South,175,2.0,4.0,44,0.00,,OVC065,0.01,VWS V14.01,2013-01-22 19:43:00,
2013-01-22 13:48:00,72.8,49.0,30.21,South,174,4.0,4.0,43,0.00,,OVC065,0.01,VWS V14.01,2013-01-22 19:48:00,
2013-01-22 13:50:00,72.5,50.0,30.21,SSW,194,1.0,6.0,45,0.00,,CLR,0.01,VWS V14.01,2013-01-22 19:50:00,
2013-01-22 13:53:00,72.7,48.3,30.21,SSE,159,0.0,6.0,42,0.00,,OVC065,0.01,VWS V14.01,2013-01-22 19:53:00,
2013-01-22 13:58:00,72.8,47.1,30.21,SSE,155,1.0,2.0,40,0.00,,OVC065,0.01,VWS V14.01,2013-01-22 19:58:00,
2013-01-22 14:00:00,72.8,49.0,30.21,South,174,2.0,4.0,43,0.00,,CLR,0.01,VWS V14.01,2013-01-22 20:00:00,
2013-01-22 14:03:00,73.2,48.1,30.20,WSW,257,0.0,2.0,41,0.00,,CLR,0.01,VWS V14.01,2013-01-22 20:03:00,
2013-01-22 14:08:00,73.4,47.0,30.20,South,184,5.0,5.0,39,0.00,,CLR,0.01,VWS V14.01,2013-01-22 20:08:00,
2013-01-22 14:10:00,72.8,47.1,30.21,SSE,155,2.0,6.0,40,0.00,,CLR,0.01,VWS V14.01,2013-01-22 20:10:00,
2013-01-22 14:13:00,73.0,47.3,30.20,SSE,153,0.0,6.0,40,0.00,,CLR,0.01,VWS V14.01,2013-01-22 20:13:00,
2013-01-22 14:18:00,73.0,48.6,30.20,SSW,192,4.0,4.0,42,0.00,,CLR,0.01,VWS V14.01,2013-01-22 20:18:00,
2013-01-22 14:20:00,73.4,47.6,30.20,South,184,4.0,6.0,40,0.00,,CLR,0.01,VWS V14.01,2013-01-22 20:20:00,
2013-01-22 14:23:00,72.8,48.4,30.20,SSW,192,3.0,6.0,42,0.00,,CLR,0.01,VWS V14.01,2013-01-22 20:23:00,
2013-01-22 14:28:00,72.7,48.9,30.20,South,169,0.0,2.0,43,0.00,,CLR,0.01,VWS V14.01,2013-01-22 20:28:00,
2013-01-22 14:30:00,72.8,48.4,30.20,SSW,192,3.0,6.0,42,0.00,,CLR,0.01,VWS V14.01,2013-01-22 20:30:00,
2013-01-22 14:33:00,73.0,48.6,30.19,South,177,2.0,4.0,42,0.00,,CLR,0.01,VWS V14.01,2013-01-22 20:33:00,
2013-01-22 14:38:00,73.2,48.8,30.19,South,186,5.0,5.0,42,0.00,,CLR,0.01,VWS V14.01,2013-01-22 20:38:00,
2013-01-22 14:40:00,72.7,48.9,30.20,South,169,1.0,6.0,43,0.00,,CLR,0.01,VWS V14.01,2013-01-22 20:40:00,
2013-01-22 14:43:00,73.2,49.4,30.19,SSW,203,3.0,5.0,43,0.00,,CLR,0.01,VWS V14.01,2013-01-22 20:43:00,
2013-01-22 14:49:00,73.4,48.3,30.19,SSW,200,3.0,3.0,41,0.00,,CLR,0.01,VWS V14.01,2013-01-22 20:49:00,
2013-01-22 14:50:00,73.2,48.1,30.19,SSW,195,2.0,4.0,41,0.00,,CLR,0.01,VWS V14.01,2013-01-22 20:50:00,
2013-01-22 14:54:00,73.0,49.2,30.19,SSW,198,1.0,4.0,43,0.00,,CLR,0.01,VWS V14.01,2013-01-22 20:54:00,
2013-01-22 14:59:00,73.5,48.4,30.19,SSW,196,4.0,4.0,41,0.00,,CLR,0.01,VWS V14.01,2013-01-22 20:59:00,
2013-01-22 15:00:00,73.4,48.3,30.19,SSW,200,2.0,7.0,41,0.00,,CLR,0.01,VWS V14.01,2013-01-22 21:00:00,
2013-01-22 15:03:00,73.4,48.9,30.19,South,191,3.0,6.0,42,0.00,,CLR,0.01,VWS V14.01,2013-01-22 21:03:00,
2013-01-22 15:09:00,73.2,47.5,30.19,SSW,198,1.0,5.0,40,0.00,,CLR,0.01,VWS V14.01,2013-01-22 21:09:00,
2013-01-22 15:10:00,73.5,48.4,30.19,SSW,200,0.0,4.0,41,0.00,,CLR,0.01,VWS V14.01,2013-01-22 21:10:00,
2013-01-22 15:14:00,73.2,48.1,30.19,SW,223,3.0,5.0,41,0.00,,CLR,0.01,VWS V14.01,2013-01-22 21:14:00,
2013-01-22 15:19:00,73.4,48.9,30.18,SSW,207,3.0,4.0,42,0.00,,CLR,0.01,VWS V14.01,2013-01-22 21:19:00,
2013-01-22 15:20:00,73.2,48.1,30.19,SSW,198,5.0,6.0,41,0.00,,CLR,0.01,VWS V14.01,2013-01-22 21:20:00,
2013-01-22 15:23:00,73.4,48.3,30.18,South,182,3.0,5.0,41,0.00,,CLR,0.01,VWS V14.01,2013-01-22 21:23:00,
2013-01-22 15:28:00,73.4,48.9,30.18,SSW,194,1.0,3.0,42,0.00,,CLR,0.01,VWS V14.01,2013-01-22 21:28:00,
2013-01-22 15:30:00,73.4,47.6,30.18,SSW,207,4.0,7.0,40,0.00,,CLR,0.01,VWS V14.01,2013-01-22 21:30:00,
2013-01-22 15:32:00,73.4,48.9,30.18,SSW,194,1.0,3.0,42,0.00,,CLR,0.01,VWS V14.01,2013-01-22 21:32:00,
2013-01-22 15:36:00,73.5,48.4,30.18,SSW,198,2.0,8.0,41,0.00,,CLR,0.01,VWS V14.01,2013-01-22 21:36:00,
2013-01-22 15:40:00,73.4,48.9,30.18,SSW,194,3.0,7.0,42,0.00,,CLR,0.01,VWS V14.01,2013-01-22 21:40:00,
2013-01-22 15:42:00,73.5,48.4,30.18,SSW,200,0.0,4.0,41,0.00,,CLR,0.01,VWS V14.01,2013-01-22 21:42:00,
2013-01-22 15:47:00,73.5,49.0,30.18,SSW,207,1.0,4.0,42,0.00,,CLR,0.01,VWS V14.01,2013-01-22 21:47:00,
2013-01-22 15:50:00,73.5,49.0,30.18,SSW,201,1.0,8.0,42,0.00,,CLR,0.01,VWS V14.01,2013-01-22 21:50:00,
2013-01-22 15:52:00,73.4,48.9,30.18,South,190,3.0,6.0,42,0.00,,CLR,0.01,VWS V14.01,2013-01-22 21:52:00,
2013-01-22 15:57:00,73.0,47.9,30.18,South,173,0.0,7.0,41,0.00,,CLR,0.01,VWS V14.01,2013-01-22 21:57:00,
2013-01-22 16:00:00,73.5,48.4,30.18,South,180,2.0,4.0,41,0.00,,CLR,0.01,VWS V14.01,2013-01-22 22:00:00,
2013-01-22 16:02:00,72.8,47.8,30.18,SSW,197,3.0,5.0,41,0.00,,SCT050,0.01,VWS V14.01,2013-01-22 22:02:00,
2013-01-22 16:07:00,72.7,47.7,30.19,South,178,1.0,5.0,41,0.00,,SCT050,0.01,VWS V14.01,2013-01-22 22:07:00,
2013-01-22 16:10:00,72.8,48.4,30.18,SSW,192,5.0,7.0,42,0.00,,CLR,0.01,VWS V14.01,2013-01-22 22:10:00,
2013-01-22 16:12:00,72.5,48.1,30.19,SSW,193,1.0,5.0,42,0.00,,SCT050,0.01,VWS V14.01,2013-01-22 22:12:00,
2013-01-22 16:17:00,72.0,48.3,30.19,SSW,195,1.0,5.0,43,0.00,,SCT050,0.01,VWS V14.01,2013-01-22 22:17:00,
2013-01-22 16:20:00,72.5,47.5,30.19,South,178,0.0,5.0,41,0.00,,CLR,0.01,VWS V14.01,2013-01-22 22:20:00,
2013-01-22 16:22:00,71.5,47.8,30.19,SSW,194,0.0,4.0,43,0.00,,SCT050,0.01,VWS V14.01,2013-01-22 22:22:00,
2013-01-22 16:27:00,71.5,48.5,30.19,SSW,194,0.0,4.0,44,0.00,,SCT050,0.01,VWS V14.01,2013-01-22 22:27:00,
2013-01-22 16:30:00,71.8,48.7,30.19,SSW,195,0.0,5.0,44,0.00,,CLR,0.01,VWS V14.01,2013-01-22 22:30:00,
2013-01-22 16:32:00,71.5,49.1,30.19,SSW,194,1.0,4.0,45,0.00,,SCT050,0.01,VWS V14.01,2013-01-22 22:32:00,
2013-01-22 16:37:00,71.5,48.5,30.19,SSW,194,0.0,4.0,44,0.00,,SCT050,0.01,VWS V14.01,2013-01-22 22:37:00,
2013-01-22 16:40:00,71.5,48.5,30.19,SSW,194,0.0,4.0,44,0.00,,CLR,0.01,VWS V14.01,2013-01-22 22:40:00,
2013-01-22 16:42:00,71.5,48.5,30.19,SSW,195,0.0,4.0,44,0.00,,SCT050,0.01,VWS V14.01,2013-01-22 22:42:00,
2013-01-22 16:47:00,71.3,48.3,30.19,SSW,198,0.0,4.0,44,0.00,,SCT050,0.01,VWS V14.01,2013-01-22 22:47:00,
2013-01-22 16:50:00,71.5,49.7,30.19,SSW,196,2.0,4.0,46,0.00,,CLR,0.01,VWS V14.01,2013-01-22 22:50:00,
2013-01-22 16:52:00,71.0,48.6,30.19,SSW,198,0.0,2.0,45,0.00,,SCT050,0.01,VWS V14.01,2013-01-22 22:52:00,
2013-01-22 16:57:00,70.4,48.1,30.19,SSW,198,1.0,3.0,45,0.00,,SCT050,0.01,VWS V14.01,2013-01-22 22:57:00,
2013-01-22 17:00:00,71.3,48.3,30.19,SSW,198,0.0,4.0,44,0.00,,CLR,0.01,VWS V14.01,2013-01-22 23:00:00,
2013-01-22 17:02:00,70.3,48.0,30.19,SSW,198,0.0,3.0,45,0.00,,SCT050,0.01,VWS V14.01,2013-01-22 23:02:00,
2013-01-22 17:07:00,69.9,49.3,30.19,SSW,198,0.0,3.0,48,0.00,,SCT050,0.01,VWS V14.01,2013-01-22 23:07:00,
2013-01-22 17:10:00,70.4,48.7,30.19,SSW,198,0.0,3.0,46,0.00,,CLR,0.01,VWS V14.01,2013-01-22 23:10:00,
2013-01-22 17:12:00,69.8,48.7,30.19,SSW,198,0.0,1.0,47,0.00,,SCT050,0.01,VWS V14.01,2013-01-22 23:12:00,
2013-01-22 17:17:00,69.6,48.5,30.19,SSW,198,0.0,1.0,47,0.00,,SCT050,0.01,VWS V14.01,2013-01-22 23:17:00,
2013-01-22 17:20:00,69.9,48.8,30.19,SSW,198,0.0,3.0,47,0.00,,CLR,0.01,VWS V14.01,2013-01-22 23:20:00,
2013-01-22 17:22:00,69.3,48.2,30.19,SSW,198,1.0,3.0,47,0.00,,SCT050,0.01,VWS V14.01,2013-01-22 23:22:00,
2013-01-22 17:27:00,69.1,48.6,30.19,SSW,198,0.0,3.0,48,0.00,,SCT050,0.01,VWS V14.01,2013-01-22 23:27:00,
2013-01-22 17:30:00,69.6,48.5,30.19,SSW,198,0.0,1.0,47,0.00,,CLR,0.01,VWS V14.01,2013-01-22 23:30:00,
2013-01-22 17:32:00,68.9,47.9,30.19,SSW,198,0.0,1.0,47,0.00,,SCT050,0.01,VWS V14.01,2013-01-22 23:32:00,
2013-01-22 17:37:00,68.4,48.0,30.19,SSW,198,0.0,1.0,48,0.00,,SCT050,0.01,VWS V14.01,2013-01-22 23:37:00,
2013-01-22 17:40:00,69.1,48.6,30.19,SSW,198,0.0,3.0,48,0.00,,CLR,0.01,VWS V14.01,2013-01-22 23:40:00,
2013-01-22 17:42:00,68.1,47.7,30.19,SSW,198,0.0,0.0,48,0.00,,SCT050,0.01,VWS V14.01,2013-01-22 23:42:00,
2013-01-22 17:47:00,67.6,47.8,30.19,SSW,198,0.0,0.0,49,0.00,,SCT050,0.01,VWS V14.01,2013-01-22 23:47:00,
2013-01-22 17:50:00,68.4,47.4,30.19,SSW,198,0.0,1.0,47,0.00,,CLR,0.01,VWS V14.01,2013-01-22 23:50:00,
2013-01-22 17:52:00,67.1,47.9,30.19,SSW,198,0.0,0.0,50,0.00,,SCT050,0.01,VWS V14.01,2013-01-22 23:52:00,
2013-01-22 17:58:00,66.6,47.9,30.19,SSW,198,0.0,0.0,51,0.00,,SCT050,0.01,VWS V14.01,2013-01-22 23:58:00,
2013-01-22 18:00:00,67.4,47.6,30.19,SSW,198,0.0,0.0,49,0.00,,CLR,0.01,VWS V14.01,2013-01-23 00:00:00,
2013-01-22 18:03:00,65.9,47.8,30.19,SSW,198,0.0,0.0,52,0.00,,SCT055,0.01,VWS V14.01,2013-01-23 00:03:00,
2013-01-22 18:08:00,65.5,47.4,30.19,SSW,198,0.0,0.0,52,0.00,,SCT055,0.01,VWS V14.01,2013-01-23 00:08:00,
2013-01-22 18:10:00,66.4,47.7,30.19,SSW,198,0.0,0.0,51,0.00,,CLR,0.01,VWS V14.01,2013-01-23 00:10:00,
2013-01-22 18:13:00,64.8,47.8,30.19,SSW,198,0.0,0.0,54,0.00,,SCT055,0.01,VWS V14.01,2013-01-23 00:13:00,
2013-01-22 18:18:00,64.3,47.3,30.19,SSW,198,0.0,0.0,54,0.00,,SCT055,0.01,VWS V14.01,2013-01-23 00:18:00,
2013-01-22 18:20:00,65.3,47.2,30.19,SSW,198,0.0,0.0,52,0.00,,CLR,0.01,VWS V14.01,2013-01-23 00:20:00,
2013-01-22 18:23:00,63.8,47.3,30.19,SSW,198,0.0,0.0,55,0.00,,SCT055,0.01,VWS V14.01,2013-01-23 00:23:00,
2013-01-22 18:28:00,63.4,47.0,30.19,SSW,198,0.0,0.0,55,0.00,,SCT055,0.01,VWS V14.01,2013-01-23 00:28:00,
2013-01-22 18:30:00,64.3,47.3,30.19,SSW,198,0.0,0.0,54,0.00,,CLR,0.01,VWS V14.01,2013-01-23 00:30:00,
2013-01-22 18:33:00,62.9,47.0,30.19,SSW,198,0.0,0.0,56,0.00,,SCT055,0.01,VWS V14.01,2013-01-23 00:33:00,
2013-01-22 18:38:00,62.4,47.5,30.19,SSW,198,0.0,0.0,58,0.00,,SCT055,0.01,VWS V14.01,2013-01-23 00:38:00,
2013-01-22 18:40:00,63.2,47.3,30.19,SSW,198,0.0,0.0,56,0.00,,CLR,0.01,VWS V14.01,2013-01-23 00:40:00,
2013-01-22 18:43:00,61.8,47.3,30.19,SSW,198,0.0,0.0,59,0.00,,SCT055,0.01,VWS V14.01,2013-01-23 00:43:00,
2013-01-22 18:48:00,61.3,47.3,30.20,SSW,198,0.0,0.0,60,0.00,,SCT055,0.01,VWS V14.01,2013-01-23 00:48:00,
2013-01-22 18:50:00,62.2,47.3,30.19,SSW,198,0.0,0.0,58,0.00,,CLR,0.01,VWS V14.01,2013-01-23 00:50:00,
2013-01-22 18:53:00,60.7,47.2,30.20,SSW,198,0.0,0.0,61,0.00,,SCT055,0.01,VWS V14.01,2013-01-23 00:53:00,
2013-01-22 18:58:00,60.2,46.7,30.20,SSW,198,0.0,0.0,61,0.00,,SCT055,0.01,VWS V14.01,2013-01-23 00:58:00,
2013-01-22 19:00:00,61.1,47.1,30.20,SSW,198,0.0,0.0,60,0.00,,CLR,0.01,VWS V14.01,2013-01-23 01:00:00,
2013-01-22 19:03:00,59.7,46.7,30.20,SSW,198,0.0,0.0,62,0.00,,FEW060,0.01,VWS V14.01,2013-01-23 01:03:00,
2013-01-22 19:08:00,59.4,46.8,30.20,SSW,198,0.0,0.0,63,0.00,,FEW060,0.01,VWS V14.01,2013-01-23 01:08:00,
2013-01-22 19:10:00,60.2,46.7,30.20,SSW,198,0.0,0.0,61,0.00,,CLR,0.01,VWS V14.01,2013-01-23 01:10:00,
2013-01-22 19:13:00,59.0,47.3,30.20,SSW,198,0.0,0.0,65,0.00,,FEW060,0.01,VWS V14.01,2013-01-23 01:13:00,
2013-01-22 19:18:00,58.7,47.4,30.20,SSW,198,0.0,0.0,66,0.00,,FEW060,0.01,VWS V14.01,2013-01-23 01:18:00,
2013-01-22 19:20:00,59.4,46.8,30.20,SSW,198,0.0,0.0,63,0.00,,CLR,0.01,VWS V14.01,2013-01-23 01:20:00,
2013-01-22 19:23:00,58.2,46.9,30.20,SSW,198,0.0,0.0,66,0.00,,FEW060,0.01,VWS V14.01,2013-01-23 01:23:00,
2013-01-22 19:28:00,57.9,46.6,30.20,SSW,198,0.0,0.0,66,0.00,,FEW060,0.01,VWS V14.01,2013-01-23 01:28:00,
2013-01-22 19:30:00,58.5,47.2,30.20,SSW,198,0.0,0.0,66,0.00,,CLR,0.01,VWS V14.01,2013-01-23 01:30:00,
2013-01-22 19:33:00,57.8,46.9,30.20,SSW,198,0.0,0.0,67,0.00,,FEW060,0.01,VWS V14.01,2013-01-23 01:33:00,
2013-01-22 19:38:00,57.5,46.6,30.20,SSW,198,0.0,0.0,67,0.00,,FEW060,0.01,VWS V14.01,2013-01-23 01:38:00,
2013-01-22 19:40:00,57.9,46.6,30.20,SSW,198,0.0,0.0,66,0.00,,CLR,0.01,VWS V14.01,2013-01-23 01:40:00,
2013-01-22 19:43:00,57.1,46.7,30.20,SSW,198,0.0,0.0,68,0.00,,FEW060,0.01,VWS V14.01,2013-01-23 01:43:00,
2013-01-22 19:48:00,57.0,46.9,30.20,SSW,198,0.0,0.0,69,0.00,,FEW060,0.01,VWS V14.01,2013-01-23 01:48:00,
2013-01-22 19:50:00,57.5,46.6,30.20,SSW,198,0.0,0.0,67,0.00,,CLR,0.01,VWS V14.01,2013-01-23 01:50:00,
2013-01-22 19:53:00,56.8,47.1,30.20,SSW,198,0.0,0.0,70,0.00,,FEW060,0.01,VWS V14.01,2013-01-23 01:53:00,
2013-01-22 19:58:00,56.8,47.1,30.20,SSW,198,2.0,2.0,70,0.00,,FEW060,0.01,VWS V14.01,2013-01-23 01:58:00,
2013-01-22 20:00:00,57.0,46.9,30.20,SSW,198,0.0,0.0,69,0.00,,CLR,0.01,VWS V14.01,2013-01-23 02:00:00,
2013-01-22 20:03:00,57.5,47.0,30.20,SSW,196,1.0,2.0,68,0.00,,CLR,0.01,VWS V14.01,2013-01-23 02:03:00,
2013-01-22 20:08:00,58.7,47.0,30.20,SSW,192,0.0,2.0,65,0.00,,CLR,0.01,VWS V14.01,2013-01-23 02:08:00,
2013-01-22 20:10:00,56.8,47.1,30.20,SSW,198,0.0,2.0,70,0.00,,CLR,0.01,VWS V14.01,2013-01-23 02:10:00,
2013-01-22 20:13:00,59.6,47.0,30.20,SSW,205,0.0,2.0,63,0.00,,CLR,0.01,VWS V14.01,2013-01-23 02:13:00,
2013-01-22 20:18:00,60.0,46.5,30.21,SSW,198,0.0,3.0,61,0.00,,CLR,0.01,VWS V14.01,2013-01-23 02:18:00,
2013-01-22 20:20:00,58.8,47.1,30.20,South,191,0.0,2.0,65,0.00,,CLR,0.01,VWS V14.01,2013-01-23 02:20:00,
2013-01-22 20:23:00,60.4,46.9,30.21,SSW,196,1.0,3.0,61,0.00,,CLR,0.01,VWS V14.01,2013-01-23 02:23:00,
2013-01-22 20:28:00,60.4,46.9,30.21,SSW,196,0.0,3.0,61,0.00,,CLR,0.01,VWS V14.01,2013-01-23 02:28:00,
2013-01-22 20:30:00,60.2,46.7,30.21,SSW,198,1.0,3.0,61,0.00,,CLR,0.01,VWS V14.01,2013-01-23 02:30:00,
2013-01-22 20:33:00,60.5,47.0,30.21,SSW,196,0.0,2.0,61,0.00,,CLR,0.01,VWS V14.01,2013-01-23 02:33:00,
2013-01-22 20:38:00,60.4,46.9,30.21,SSW,196,0.0,2.0,61,0.00,,CLR,0.01,VWS V14.01,2013-01-23 02:38:00,
2013-01-22 20:40:00,60.4,46.9,30.21,SSW,196,0.0,3.0,61,0.00,,CLR,0.01,VWS V14.01,2013-01-23 02:40:00,
2013-01-22 20:43:00,60.0,47.0,30.21,SSW,196,0.0,2.0,62,0.00,,CLR,0.01,VWS V14.01,2013-01-23 02:43:00,
2013-01-22 20:48:00,59.6,47.0,30.21,SW,221,0.0,4.0,63,0.00,,CLR,0.01,VWS V14.01,2013-01-23 02:48:00,
2013-01-22 20:50:00,60.4,46.9,30.21,SSW,196,0.0,2.0,61,0.00,,CLR,0.01,VWS V14.01,2013-01-23 02:50:00,
2013-01-22 20:53:00,59.3,47.1,30.21,SW,221,0.0,2.0,64,0.00,,CLR,0.01,VWS V14.01,2013-01-23 02:53:00,
2013-01-22 20:58:00,59.3,47.5,30.21,SSE,150,1.0,5.0,65,0.00,,CLR,0.01,VWS V14.01,2013-01-23 02:58:00,
2013-01-22 21:00:00,59.6,47.0,30.21,SW,221,1.0,4.0,63,0.00,,CLR,0.01,VWS V14.01,2013-01-23 03:00:00,
2013-01-22 21:03:00,59.4,47.7,30.22,SSE,150,0.0,1.0,65,0.00,,CLR,0.01,VWS V14.01,2013-01-23 03:03:00,
2013-01-22 21:08:00,59.4,47.7,30.22,SSE,150,0.0,1.0,65,0.00,,CLR,0.01,VWS V14.01,2013-01-23 03:08:00,
2013-01-22 21:10:00,59.3,47.5,30.21,SSE,150,0.0,5.0,65,0.00,,CLR,0.01,VWS V14.01,2013-01-23 03:10:00,
2013-01-22 21:13:00,59.4,47.7,30.22,SSE,150,0.0,1.0,65,0.00,,CLR,0.01,VWS V14.01,2013-01-23 03:13:00,
2013-01-22 21:18:00,59.4,47.7,30.23,SSE,150,0.0,1.0,65,0.00,,CLR,0.01,VWS V14.01,2013-01-23 03:18:00,
2013-01-22 21:20:00,59.4,47.7,30.22,SSE,150,0.0,1.0,65,0.00,,CLR,0.01,VWS V14.01,2013-01-23 03:20:00,
2013-01-22 21:23:00,59.1,47.8,30.23,SSE,150,0.0,0.0,66,0.00,,CLR,0.01,VWS V14.01,2013-01-23 03:23:00,
2013-01-22 21:28:00,59.0,47.7,30.23,SSE,150,0.0,1.0,66,0.00,,CLR,0.01,VWS V14.01,2013-01-23 03:28:00,
2013-01-22 21:30:00,59.4,47.7,30.23,SSE,150,0.0,1.0,65,0.00,,CLR,0.01,VWS V14.01,2013-01-23 03:30:00,
2013-01-22 21:33:00,59.0,47.7,30.23,SSE,149,0.0,4.0,66,0.00,,CLR,0.01,VWS V14.01,2013-01-23 03:33:00,
2013-01-22 21:38:00,58.8,47.5,30.23,SSE,149,0.0,4.0,66,0.00,,CLR,0.01,VWS V14.01,2013-01-23 03:38:00,
2013-01-22 21:40:00,59.0,47.7,30.23,SSE,150,0.0,1.0,66,0.00,,CLR,0.01,VWS V14.01,2013-01-23 03:40:00,
2013-01-22 21:43:00,58.8,47.9,30.23,SSE,149,0.0,1.0,67,0.00,,CLR,0.01,VWS V14.01,2013-01-23 03:43:00,
2013-01-22 21:48:00,58.7,47.8,30.23,SSE,149,0.0,1.0,67,0.00,,CLR,0.01,VWS V14.01,2013-01-23 03:48:00,
2013-01-22 21:50:00,58.8,47.5,30.23,SSE,149,0.0,4.0,66,0.00,,CLR,0.01,VWS V14.01,2013-01-23 03:50:00,
2013-01-22 21:53:00,58.7,47.8,30.23,SSE,149,0.0,2.0,67,0.00,,CLR,0.01,VWS V14.01,2013-01-23 03:53:00,
2013-01-22 21:58:00,58.7,48.2,30.23,SSE,149,0.0,4.0,68,0.00,,CLR,0.01,VWS V14.01,2013-01-23 03:58:00,
2013-01-22 22:00:00,58.7,47.8,30.23,SSE,149,0.0,1.0,67,0.00,,CLR,0.01,VWS V14.01,2013-01-23 04:00:00,
2013-01-22 22:03:00,58.5,48.0,30.23,SSE,155,0.0,2.0,68,0.00,,CLR,0.01,VWS V14.01,2013-01-23 04:03:00,
2013-01-22 22:08:00,58.2,48.1,30.23,SSE,147,1.0,4.0,69,0.00,,CLR,0.01,VWS V14.01,2013-01-23 04:08:00,
2013-01-22 22:10:00,58.7,48.2,30.23,SSE,149,0.0,4.0,68,0.00,,CLR,0.01,VWS V14.01,2013-01-23 04:10:00,
2013-01-22 22:13:00,58.2,48.5,30.23,SSE,147,0.0,2.0,70,0.00,,CLR,0.01,VWS V14.01,2013-01-23 04:13:00,
2013-01-22 22:18:00,58.2,48.5,30.24,SSE,156,0.0,2.0,70,0.00,,CLR,0.01,VWS V14.01,2013-01-23 04:18:00,
2013-01-22 22:20:00,58.2,48.1,30.23,SSE,148,1.0,4.0,69,0.00,,CLR,0.01,VWS V14.01,2013-01-23 04:20:00,
2013-01-22 22:23:00,58.1,48.8,30.24,SSE,156,0.0,0.0,71,0.00,,CLR,0.01,VWS V14.01,2013-01-23 04:23:00,
2013-01-22 22:28:00,57.8,48.5,30.24,SSE,155,2.0,2.0,71,0.00,,CLR,0.01,VWS V14.01,2013-01-23 04:28:00,
2013-01-22 22:30:00,58.2,48.5,30.24,SSE,156,0.0,2.0,70,0.00,,CLR,0.01,VWS V14.01,2013-01-23 04:30:00,
2013-01-22 22:33:00,57.5,48.2,30.24,SSE,155,0.0,2.0,71,0.00,,CLR,0.01,VWS V14.01,2013-01-23 04:33:00,
2013-01-22 22:38:00,57.0,48.1,30.24,SSE,155,0.0,2.0,72,0.00,,CLR,0.01,VWS V14.01,2013-01-23 04:38:00,
2013-01-22 22:40:00,57.8,48.5,30.24,SSE,155,2.0,2.0,71,0.00,,CLR,0.01,VWS V14.01,2013-01-23 04:40:00,
2013-01-22 22:43:00,56.5,48.0,30.24,SSE,155,0.0,0.0,73,0.00,,CLR,0.01,VWS V14.01,2013-01-23 04:43:00,
2013-01-22 22:48:00,56.1,47.9,30.24,SSE,155,0.0,0.0,74,0.00,,CLR,0.01,VWS V14.01,2013-01-23 04:48:00,
2013-01-22 22:50:00,57.0,48.1,30.24,SSE,155,0.0,2.0,72,0.00,,CLR,0.01,VWS V14.01,2013-01-23 04:50:00,
2013-01-22 22:53:00,55.8,48.0,30.24,SSE,155,0.0,0.0,75,0.00,,CLR,0.01,VWS V14.01,2013-01-23 04:53:00,
2013-01-22 22:58:00,55.5,48.1,30.24,SSE,155,0.0,0.0,76,0.00,,CLR,0.01,VWS V14.01,2013-01-23 04:58:00,
2013-01-22 23:00:00,55.5,48.1,30.24,SSE,155,0.0,0.0,76,0.00,,CLR,0.01,VWS V14.01,2013-01-23 05:00:00,
2013-01-22 23:01:00,55.5,48.1,30.24,SSE,155,0.0,0.0,76,0.00,,CLR,0.01,VWS V14.01,2013-01-23 05:01:00,
2013-01-22 23:02:00,55.5,48.4,30.24,SSE,157,0.0,1.0,77,0.00,,CLR,0.01,VWS V14.01,2013-01-23 05:02:00,
2013-01-22 23:03:00,55.5,48.1,30.25,SSE,157,0.0,1.0,76,0.00,,CLR,0.01,VWS V14.01,2013-01-23 05:03:00,
2013-01-22 23:08:00,55.4,48.3,30.25,SSE,157,0.0,0.0,77,0.00,,CLR,0.01,VWS V14.01,2013-01-23 05:08:00,
2013-01-22 23:10:00,55.5,48.1,30.24,SSE,155,0.0,0.0,76,0.00,,CLR,0.01,VWS V14.01,2013-01-23 05:10:00,
2013-01-22 23:13:00,55.2,48.1,30.25,SSE,157,0.0,0.0,77,0.00,,CLR,0.01,VWS V14.01,2013-01-23 05:13:00,
2013-01-22 23:18:00,54.9,47.8,30.25,SSE,157,0.0,0.0,77,0.00,,CLR,0.01,VWS V14.01,2013-01-23 05:18:00,
2013-01-22 23:20:00,55.4,48.3,30.25,SSE,157,0.0,1.0,77,0.00,,CLR,0.01,VWS V14.01,2013-01-23 05:20:00,
2013-01-22 23:23:00,54.6,47.9,30.25,SSE,157,0.0,0.0,78,0.00,,CLR,0.01,VWS V14.01,2013-01-23 05:23:00,
2013-01-22 23:28:00,54.3,47.9,30.25,SSE,157,0.0,0.0,79,0.00,,CLR,0.01,VWS V14.01,2013-01-23 05:28:00,
2013-01-22 23:30:00,54.9,47.8,30.25,SSE,157,0.0,0.0,77,0.00,,CLR,0.01,VWS V14.01,2013-01-23 05:30:00,
2013-01-22 23:33:00,53.9,47.5,30.26,SSE,157,0.0,0.0,79,0.00,,CLR,0.01,VWS V14.01,2013-01-23 05:33:00,
2013-01-22 23:38:00,53.6,47.6,30.26,SSE,157,0.0,0.0,80,0.00,,CLR,0.01,VWS V14.01,2013-01-23 05:38:00,
2013-01-22 23:40:00,54.3,47.9,30.25,SSE,157,0.0,0.0,79,0.00,,CLR,0.01,VWS V14.01,2013-01-23 05:40:00,
2013-01-22 23:44:00,53.3,47.3,30.26,SSE,157,0.0,0.0,80,0.00,,CLR,0.01,VWS V14.01,2013-01-23 05:44:00,
2013-01-22 23:49:00,52.8,47.1,30.26,SSE,157,0.0,0.0,81,0.00,,CLR,0.00,VWS V14.01,2013-01-23 05:49:00,
2013-01-22 23:50:00,53.6,47.6,30.26,SSE,157,0.0,0.0,80,0.00,,CLR,0.01,VWS V14.01,2013-01-23 05:50:00,
2013-01-22 23:54:00,52.6,47.3,30.26,SSE,157,0.0,0.0,82,0.00,,CLR,0.00,VWS V14.01,2013-01-23 05:54:00,
2013-01-22 23:59:00,52.3,47.0,30.26,SSE,157,0.0,0.0,82,0.00,,CLR,0.00,VWS V14.01,2013-01-23 05:59:00,